sensor_id;sensor_type;location;lat;lon;timestamp;pressure;altitude;pressure_sealevel;temperature;humidity
64602;BME280;68371;42.630;23.192;2024-03-22T00:00:34;92340.44;;;3.81;66.79
64602;BME280;68371;42.630;23.192;2024-03-22T00:03:00;92343.91;;;3.76;66.39
64602;BME280;68371;42.630;23.192;2024-03-22T00:05:28;92341.31;;;3.76;67.41
64602;BME280;68371;42.630;23.192;2024-03-22T00:07:53;92339.59;;;3.72;66.81
64602;BME280;68371;42.630;23.192;2024-03-22T00:10:20;92343.78;;;3.59;67.21
64602;BME280;68371;42.630;23.192;2024-03-22T00:12:46;92343.78;;;3.59;67.21
64602;BME280;68371;42.630;23.192;2024-03-22T00:15:12;92319.00;;;3.39;67.99
64602;BME280;68371;42.630;23.192;2024-03-22T00:17:38;92335.81;;;3.41;68.16
64602;BME280;68371;42.630;23.192;2024-03-22T00:20:06;92336.59;;;3.42;67.93
64602;BME280;68371;42.630;23.192;2024-03-22T00:22:33;92336.59;;;3.42;68.91
64602;BME280;68371;42.630;23.192;2024-03-22T00:25:00;92331.50;;;3.37;68.56
64602;BME280;68371;42.630;23.192;2024-03-22T00:27:25;92323.81;;;3.32;68.62
64602;BME280;68371;42.630;23.192;2024-03-22T00:29:52;92331.41;;;3.28;68.44
64602;BME280;68371;42.630;23.192;2024-03-22T00:32:18;92330.38;;;3.29;68.37
64602;BME280;68371;42.630;23.192;2024-03-22T00:34:44;92331.41;;;3.28;68.71
64602;BME280;68371;42.630;23.192;2024-03-22T00:37:10;92330.66;;;3.28;68.57
64602;BME280;68371;42.630;23.192;2024-03-22T00:39:38;92327.38;;;3.22;69.35
64602;BME280;68371;42.630;23.192;2024-03-22T00:42:04;92331.13;;;3.16;68.88
64602;BME280;68371;42.630;23.192;2024-03-22T00:44:31;92333.09;;;3.10;69.06
64602;BME280;68371;42.630;23.192;2024-03-22T00:46:57;92326.81;;;3.11;68.57
64602;BME280;68371;42.630;23.192;2024-03-22T00:49:23;92337.81;;;3.08;68.72
64602;BME280;68371;42.630;23.192;2024-03-22T00:51:49;92336.25;;;3.07;68.30
64602;BME280;68371;42.630;23.192;2024-03-22T00:54:17;92331.63;;;3.04;68.88
64602;BME280;68371;42.630;23.192;2024-03-22T00:56:44;92330.38;;;3.01;68.79
64602;BME280;68371;42.630;23.192;2024-03-22T00:59:11;92335.56;;;3.01;68.72
64602;BME280;68371;42.630;23.192;2024-03-22T01:01:36;92333.16;;;2.91;69.05
64602;BME280;68371;42.630;23.192;2024-03-22T01:04:03;92330.56;;;2.77;69.17
64602;BME280;68371;42.630;23.192;2024-03-22T01:06:29;92337.31;;;2.78;69.42
64602;BME280;68371;42.630;23.192;2024-03-22T01:08:55;92336.34;;;2.74;69.63
64602;BME280;68371;42.630;23.192;2024-03-22T01:11:22;92342.28;;;2.75;69.94
64602;BME280;68371;42.630;23.192;2024-03-22T01:13:50;92343.38;;;2.74;70.05
64602;BME280;68371;42.630;23.192;2024-03-22T01:16:16;92344.69;;;2.71;70.01
64602;BME280;68371;42.630;23.192;2024-03-22T01:18:43;92332.38;;;2.63;70.62
64602;BME280;68371;42.630;23.192;2024-03-22T01:21:09;92343.56;;;2.64;70.64
64602;BME280;68371;42.630;23.192;2024-03-22T01:23:35;92344.78;;;2.66;69.54
64602;BME280;68371;42.630;23.192;2024-03-22T01:26:01;92335.09;;;2.58;70.37
64602;BME280;68371;42.630;23.192;2024-03-22T01:28:28;92338.72;;;2.57;70.89
64602;BME280;68371;42.630;23.192;2024-03-22T01:30:55;92338.03;;;2.51;70.59
64602;BME280;68371;42.630;23.192;2024-03-22T01:33:21;92330.25;;;2.51;71.01
64602;BME280;68371;42.630;23.192;2024-03-22T01:35:47;92334.97;;;2.49;70.92
64602;BME280;68371;42.630;23.192;2024-03-22T01:38:14;92342.25;;;2.47;71.38
64602;BME280;68371;42.630;23.192;2024-03-22T01:40:39;92345.44;;;2.44;70.93
64602;BME280;68371;42.630;23.192;2024-03-22T01:43:06;92338.22;;;2.41;71.29
64602;BME280;68371;42.630;23.192;2024-03-22T01:45:33;92339.75;;;2.42;71.16
64602;BME280;68371;42.630;23.192;2024-03-22T01:48:01;92340.63;;;2.37;71.37
64602;BME280;68371;42.630;23.192;2024-03-22T01:50:29;92337.44;;;2.40;71.93
64602;BME280;68371;42.630;23.192;2024-03-22T01:52:56;92338.31;;;2.36;72.01
64602;BME280;68371;42.630;23.192;2024-03-22T01:55:22;92335.22;;;2.34;72.29
64602;BME280;68371;42.630;23.192;2024-03-22T01:57:51;92341.47;;;2.33;72.18
64602;BME280;68371;42.630;23.192;2024-03-22T02:00:18;92343.00;;;2.34;71.90
64602;BME280;68371;42.630;23.192;2024-03-22T02:02:45;92341.38;;;2.38;71.88
64602;BME280;68371;42.630;23.192;2024-03-22T02:05:16;92340.97;;;2.31;72.99
64602;BME280;68371;42.630;23.192;2024-03-22T02:07:44;92338.19;;;2.27;72.83
64602;BME280;68371;42.630;23.192;2024-03-22T02:10:10;92338.47;;;2.26;72.50
64602;BME280;68371;42.630;23.192;2024-03-22T02:12:37;92339.03;;;2.23;72.09
64602;BME280;68371;42.630;23.192;2024-03-22T02:15:04;92330.38;;;2.13;72.82
64602;BME280;68371;42.630;23.192;2024-03-22T02:17:31;92325.28;;;2.08;73.62
64602;BME280;68371;42.630;23.192;2024-03-22T02:19:57;92327.66;;;2.05;73.81
64602;BME280;68371;42.630;23.192;2024-03-22T02:22:25;92336.41;;;2.09;73.34
64602;BME280;68371;42.630;23.192;2024-03-22T02:24:53;92341.31;;;2.10;74.14
64602;BME280;68371;42.630;23.192;2024-03-22T02:27:19;92343.91;;;2.10;74.80
64602;BME280;68371;42.630;23.192;2024-03-22T02:29:45;92351.41;;;2.12;73.51
64602;BME280;68371;42.630;23.192;2024-03-22T02:32:12;92345.72;;;2.10;73.68
64602;BME280;68371;42.630;23.192;2024-03-22T02:34:38;92351.47;;;2.07;73.73
64602;BME280;68371;42.630;23.192;2024-03-22T02:37:04;92350.00;;;2.00;73.51
64602;BME280;68371;42.630;23.192;2024-03-22T02:39:30;92339.94;;;1.99;73.62
64602;BME280;68371;42.630;23.192;2024-03-22T02:41:58;92352.91;;;1.99;73.65
64602;BME280;68371;42.630;23.192;2024-03-22T02:44:24;92346.84;;;2.04;73.68
64602;BME280;68371;42.630;23.192;2024-03-22T02:46:50;92346.38;;;2.02;73.84
64602;BME280;68371;42.630;23.192;2024-03-22T02:49:16;92352.91;;;1.99;73.88
64602;BME280;68371;42.630;23.192;2024-03-22T02:51:43;92353.31;;;1.87;74.00
64602;BME280;68371;42.630;23.192;2024-03-22T02:54:09;92359.97;;;1.93;74.13
64602;BME280;68371;42.630;23.192;2024-03-22T02:56:35;92353.59;;;1.86;74.35
64602;BME280;68371;42.630;23.192;2024-03-22T02:59:03;92356.81;;;1.77;74.20
64602;BME280;68371;42.630;23.192;2024-03-22T03:01:29;92363.34;;;1.75;73.94
64602;BME280;68371;42.630;23.192;2024-03-22T03:03:55;92365.66;;;1.76;73.62
64602;BME280;68371;42.630;23.192;2024-03-22T03:06:21;92361.53;;;1.75;74.25
64602;BME280;68371;42.630;23.192;2024-03-22T03:08:48;92363.50;;;1.65;74.10
64602;BME280;68371;42.630;23.192;2024-03-22T03:11:14;92362.16;;;1.67;74.58
64602;BME280;68371;42.630;23.192;2024-03-22T03:13:41;92364.78;;;1.62;74.68
64602;BME280;68371;42.630;23.192;2024-03-22T03:16:08;92361.44;;;1.62;74.40
64602;BME280;68371;42.630;23.192;2024-03-22T03:18:35;92359.69;;;1.57;75.15
64602;BME280;68371;42.630;23.192;2024-03-22T03:21:00;92364.53;;;1.64;75.09
64602;BME280;68371;42.630;23.192;2024-03-22T03:23:28;92359.44;;;1.58;74.59
64602;BME280;68371;42.630;23.192;2024-03-22T03:25:54;92359.63;;;1.62;74.66
64602;BME280;68371;42.630;23.192;2024-03-22T03:28:20;92363.81;;;1.58;74.71
64602;BME280;68371;42.630;23.192;2024-03-22T03:30:46;92366.41;;;1.58;74.24
64602;BME280;68371;42.630;23.192;2024-03-22T03:33:14;92366.41;;;1.58;74.96
64602;BME280;68371;42.630;23.192;2024-03-22T03:35:40;92365.38;;;1.59;75.00
64602;BME280;68371;42.630;23.192;2024-03-22T03:38:06;92369.50;;;1.60;74.26
64602;BME280;68371;42.630;23.192;2024-03-22T03:40:32;92367.47;;;1.57;74.80
64602;BME280;68371;42.630;23.192;2024-03-22T03:42:59;92367.81;;;1.50;75.39
64602;BME280;68371;42.630;23.192;2024-03-22T03:45:25;92366.50;;;1.53;75.34
64602;BME280;68371;42.630;23.192;2024-03-22T03:47:51;92370.13;;;1.52;75.46
64602;BME280;68371;42.630;23.192;2024-03-22T03:50:18;92375.03;;;1.53;75.59
64602;BME280;68371;42.630;23.192;2024-03-22T03:52:45;92365.28;;;1.45;75.48
64602;BME280;68371;42.630;23.192;2024-03-22T03:55:11;92377.97;;;1.47;75.89
64602;BME280;68371;42.630;23.192;2024-03-22T03:57:37;92376.63;;;1.49;75.47
64602;BME280;68371;42.630;23.192;2024-03-22T04:00:04;92375.78;;;1.54;75.29
64602;BME280;68371;42.630;23.192;2024-03-22T04:02:31;92377.34;;;1.55;74.77
64602;BME280;68371;42.630;23.192;2024-03-22T04:04:57;92381.03;;;1.49;75.08
64602;BME280;68371;42.630;23.192;2024-03-22T04:07:25;92378.50;;;1.44;75.46
64602;BME280;68371;42.630;23.192;2024-03-22T04:09:51;92385.59;;;1.38;75.92
64602;BME280;68371;42.630;23.192;2024-03-22T04:12:17;92394.13;;;1.38;76.00
64602;BME280;68371;42.630;23.192;2024-03-22T04:14:43;92384.03;;;1.37;76.00
64602;BME280;68371;42.630;23.192;2024-03-22T04:17:10;92386.09;;;1.40;75.55
64602;BME280;68371;42.630;23.192;2024-03-22T04:19:36;92397.25;;;1.35;75.18
64602;BME280;68371;42.630;23.192;2024-03-22T04:22:03;92394.97;;;1.34;75.29
64602;BME280;68371;42.630;23.192;2024-03-22T04:24:31;92394.47;;;1.32;75.96
64602;BME280;68371;42.630;23.192;2024-03-22T04:26:58;92406.06;;;1.34;75.90
64602;BME280;68371;42.630;23.192;2024-03-22T04:29:23;92404.25;;;1.35;75.36
64602;BME280;68371;42.630;23.192;2024-03-22T04:31:50;92400.13;;;1.34;75.87
64602;BME280;68371;42.630;23.192;2024-03-22T04:34:16;92406.13;;;1.29;76.01
64602;BME280;68371;42.630;23.192;2024-03-22T04:36:42;92407.72;;;1.25;76.11
64602;BME280;68371;42.630;23.192;2024-03-22T04:39:09;92405.13;;;1.25;76.09
64602;BME280;68371;42.630;23.192;2024-03-22T04:41:38;92404.91;;;1.22;76.72
64602;BME280;68371;42.630;23.192;2024-03-22T04:44:05;92409.06;;;1.23;77.02
64602;BME280;68371;42.630;23.192;2024-03-22T04:46:32;92415.00;;;1.23;76.53
64602;BME280;68371;42.630;23.192;2024-03-22T04:48:58;92410.91;;;1.17;77.25
64602;BME280;68371;42.630;23.192;2024-03-22T04:51:25;92419.44;;;1.17;77.60
64602;BME280;68371;42.630;23.192;2024-03-22T04:53:50;92416.09;;;1.17;77.82
64602;BME280;68371;42.630;23.192;2024-03-22T04:56:17;92413.50;;;1.17;78.13
64602;BME280;68371;42.630;23.192;2024-03-22T04:58:44;92412.28;;;1.33;80.31
64602;BME280;68371;42.630;23.192;2024-03-22T05:01:11;92410.69;;;1.37;79.28
64602;BME280;68371;42.630;23.192;2024-03-22T05:03:38;92412.94;;;1.44;78.06
64602;BME280;68371;42.630;23.192;2024-03-22T05:06:06;92418.13;;;1.44;77.80
64602;BME280;68371;42.630;23.192;2024-03-22T05:08:32;92417.34;;;1.44;77.88
64602;BME280;68371;42.630;23.192;2024-03-22T05:10:59;92426.94;;;1.43;77.94
64602;BME280;68371;42.630;23.192;2024-03-22T05:13:25;92422.25;;;1.45;78.17
64602;BME280;68371;42.630;23.192;2024-03-22T05:15:53;92422.75;;;1.47;78.27
64602;BME280;68371;42.630;23.192;2024-03-22T05:18:19;92426.66;;;1.45;78.29
64602;BME280;68371;42.630;23.192;2024-03-22T05:20:46;92428.00;;;1.42;77.80
64602;BME280;68371;42.630;23.192;2024-03-22T05:23:11;92430.59;;;1.42;77.23
64602;BME280;68371;42.630;23.192;2024-03-22T05:25:38;92410.25;;;1.30;77.77
64602;BME280;68371;42.630;23.192;2024-03-22T05:28:04;92431.63;;;1.41;78.19
64602;BME280;68371;42.630;23.192;2024-03-22T05:30:31;92426.16;;;1.43;77.82
64602;BME280;68371;42.630;23.192;2024-03-22T05:32:58;92424.78;;;1.50;78.59
64602;BME280;68371;42.630;23.192;2024-03-22T05:35:25;92418.41;;;1.43;78.72
64602;BME280;68371;42.630;23.192;2024-03-22T05:37:51;92431.22;;;1.53;78.83
64602;BME280;68371;42.630;23.192;2024-03-22T05:40:17;92435.63;;;1.52;77.96
64602;BME280;68371;42.630;23.192;2024-03-22T05:42:43;92434.72;;;1.62;76.64
64602;BME280;68371;42.630;23.192;2024-03-22T05:45:10;92427.13;;;1.71;76.09
64602;BME280;68371;42.630;23.192;2024-03-22T05:47:36;92434.00;;;1.80;75.13
64602;BME280;68371;42.630;23.192;2024-03-22T05:50:06;92438.47;;;1.94;73.88
64602;BME280;68371;42.630;23.192;2024-03-22T05:52:33;92440.91;;;2.04;72.63
64602;BME280;68371;42.630;23.192;2024-03-22T05:55:00;92449.25;;;2.20;70.57
64602;BME280;68371;42.630;23.192;2024-03-22T05:57:26;92452.09;;;2.37;70.29
64602;BME280;68371;42.630;23.192;2024-03-22T05:59:53;92442.84;;;2.50;71.21
64602;BME280;68371;42.630;23.192;2024-03-22T06:02:19;92450.94;;;2.63;70.55
64602;BME280;68371;42.630;23.192;2024-03-22T06:04:46;92450.38;;;2.79;68.56
64602;BME280;68371;42.630;23.192;2024-03-22T06:07:14;92444.28;;;2.89;67.53
64602;BME280;68371;42.630;23.192;2024-03-22T06:09:42;92452.16;;;2.98;67.43
64602;BME280;68371;42.630;23.192;2024-03-22T06:12:11;92446.03;;;3.08;67.37
64602;BME280;68371;42.630;23.192;2024-03-22T06:14:39;92448.25;;;3.14;67.20
64602;BME280;68371;42.630;23.192;2024-03-22T06:17:05;92446.44;;;3.29;67.41
64602;BME280;68371;42.630;23.192;2024-03-22T06:19:33;92448.84;;;3.39;66.83
64602;BME280;68371;42.630;23.192;2024-03-22T06:21:58;92450.84;;;3.56;66.33
64602;BME280;68371;42.630;23.192;2024-03-22T06:24:26;92449.28;;;3.69;65.07
64602;BME280;68371;42.630;23.192;2024-03-22T06:26:52;92459.88;;;3.72;64.86
64602;BME280;68371;42.630;23.192;2024-03-22T06:29:19;92454.88;;;3.90;65.83
64602;BME280;68371;42.630;23.192;2024-03-22T06:31:44;92453.97;;;3.94;64.74
64602;BME280;68371;42.630;23.192;2024-03-22T06:34:11;92445.69;;;4.06;64.33
64602;BME280;68371;42.630;23.192;2024-03-22T06:36:37;92444.00;;;4.24;64.50
64602;BME280;68371;42.630;23.192;2024-03-22T06:39:04;92448.66;;;4.36;65.84
64602;BME280;68371;42.630;23.192;2024-03-22T06:41:35;92458.38;;;4.44;63.49
64602;BME280;68371;42.630;23.192;2024-03-22T06:44:03;92455.19;;;4.47;61.85
64602;BME280;68371;42.630;23.192;2024-03-22T06:46:29;92452.34;;;4.57;61.61
64602;BME280;68371;42.630;23.192;2024-03-22T06:48:55;92457.03;;;4.69;61.04
64602;BME280;68371;42.630;23.192;2024-03-22T06:51:21;92462.09;;;4.74;61.05
64602;BME280;68371;42.630;23.192;2024-03-22T06:53:48;92468.81;;;4.98;62.13
64602;BME280;68371;42.630;23.192;2024-03-22T06:56:14;92470.84;;;5.01;60.58
64602;BME280;68371;42.630;23.192;2024-03-22T06:58:42;92476.84;;;5.10;60.47
64602;BME280;68371;42.630;23.192;2024-03-22T07:01:08;92470.16;;;5.18;60.22
64602;BME280;68371;42.630;23.192;2024-03-22T07:03:35;92478.47;;;5.29;59.53
64602;BME280;68371;42.630;23.192;2024-03-22T07:06:00;92478.81;;;5.36;60.26
64602;BME280;68371;42.630;23.192;2024-03-22T07:08:27;92478.28;;;5.48;60.01
64602;BME280;68371;42.630;23.192;2024-03-22T07:10:53;92485.19;;;5.61;58.15
64602;BME280;68371;42.630;23.192;2024-03-22T07:13:20;92477.25;;;5.66;58.58
64602;BME280;68371;42.630;23.192;2024-03-22T07:15:47;92472.81;;;5.75;59.95
64602;BME280;68371;42.630;23.192;2024-03-22T07:18:14;92479.28;;;5.78;57.35
64602;BME280;68371;42.630;23.192;2024-03-22T07:20:41;92481.44;;;5.85;58.42
64602;BME280;68371;42.630;23.192;2024-03-22T07:23:08;92481.47;;;5.93;58.54
64602;BME280;68371;42.630;23.192;2024-03-22T07:25:33;92480.03;;;6.18;57.05
64602;BME280;68371;42.630;23.192;2024-03-22T07:28:00;92483.97;;;6.16;57.71
64602;BME280;68371;42.630;23.192;2024-03-22T07:30:26;92489.38;;;6.19;56.17
64602;BME280;68371;42.630;23.192;2024-03-22T07:32:54;92488.16;;;6.26;57.50
64602;BME280;68371;42.630;23.192;2024-03-22T07:35:19;92491.38;;;6.31;56.90
64602;BME280;68371;42.630;23.192;2024-03-22T07:37:46;92485.25;;;6.36;58.56
64602;BME280;68371;42.630;23.192;2024-03-22T07:40:12;92489.53;;;6.40;56.56
64602;BME280;68371;42.630;23.192;2024-03-22T07:42:38;92492.47;;;6.48;57.72
64602;BME280;68371;42.630;23.192;2024-03-22T07:45:05;92487.25;;;6.48;56.30
64602;BME280;68371;42.630;23.192;2024-03-22T07:47:31;92488.03;;;6.57;57.59
64602;BME280;68371;42.630;23.192;2024-03-22T07:49:59;92494.16;;;6.70;56.05
64602;BME280;68371;42.630;23.192;2024-03-22T07:52:25;92483.56;;;6.66;55.58
64602;BME280;68371;42.630;23.192;2024-03-22T07:54:51;92493.38;;;6.78;54.49
64602;BME280;68371;42.630;23.192;2024-03-22T07:57:18;92493.66;;;6.85;55.16
64602;BME280;68371;42.630;23.192;2024-03-22T07:59:43;92503.34;;;6.93;55.94
64602;BME280;68371;42.630;23.192;2024-03-22T08:02:11;92497.06;;;6.94;55.36
64602;BME280;68371;42.630;23.192;2024-03-22T08:04:37;92509.00;;;7.13;54.21
64602;BME280;68371;42.630;23.192;2024-03-22T08:07:05;92500.13;;;7.14;54.50
64602;BME280;68371;42.630;23.192;2024-03-22T08:09:31;92506.81;;;7.23;54.60
64602;BME280;68371;42.630;23.192;2024-03-22T08:11:57;92506.19;;;7.35;54.29
64602;BME280;68371;42.630;23.192;2024-03-22T08:14:23;92505.44;;;7.35;52.32
64602;BME280;68371;42.630;23.192;2024-03-22T08:16:50;92504.97;;;7.33;53.31
64602;BME280;68371;42.630;23.192;2024-03-22T08:19:15;92504.94;;;7.50;53.99
64602;BME280;68371;42.630;23.192;2024-03-22T08:21:42;92505.25;;;7.49;54.41
64602;BME280;68371;42.630;23.192;2024-03-22T08:24:09;92498.59;;;7.60;53.31
64602;BME280;68371;42.630;23.192;2024-03-22T08:26:36;92498.22;;;7.70;52.89
64602;BME280;68371;42.630;23.192;2024-03-22T08:29:02;92502.09;;;7.73;52.27
64602;BME280;68371;42.630;23.192;2024-03-22T08:31:28;92502.03;;;7.81;51.99
64602;BME280;68371;42.630;23.192;2024-03-22T08:33:54;92504.00;;;7.93;52.53
64602;BME280;68371;42.630;23.192;2024-03-22T08:36:22;92506.66;;;8.14;52.71
64602;BME280;68371;42.630;23.192;2024-03-22T08:38:49;92499.38;;;8.20;50.68
64602;BME280;68371;42.630;23.192;2024-03-22T08:41:17;92504.31;;;8.21;50.52
64602;BME280;68371;42.630;23.192;2024-03-22T08:43:43;92505.31;;;8.29;50.52
64602;BME280;68371;42.630;23.192;2024-03-22T08:46:10;92509.03;;;8.28;49.85
64602;BME280;68371;42.630;23.192;2024-03-22T08:48:36;92504.84;;;8.36;48.51
64602;BME280;68371;42.630;23.192;2024-03-22T08:51:03;92502.53;;;8.34;49.33
64602;BME280;68371;42.630;23.192;2024-03-22T08:53:29;92512.94;;;8.52;50.04
64602;BME280;68371;42.630;23.192;2024-03-22T08:55:55;92508.91;;;8.54;49.04
64602;BME280;68371;42.630;23.192;2024-03-22T08:58:22;92506.41;;;8.58;48.93
64602;BME280;68371;42.630;23.192;2024-03-22T09:00:49;92504.03;;;8.65;49.14
64602;BME280;68371;42.630;23.192;2024-03-22T09:03:15;92503.84;;;8.91;48.15
64602;BME280;68371;42.630;23.192;2024-03-22T09:05:41;92495.53;;;8.89;50.17
64602;BME280;68371;42.630;23.192;2024-03-22T09:08:07;92488.44;;;8.90;47.63
64602;BME280;68371;42.630;23.192;2024-03-22T09:10:34;92479.19;;;8.92;46.44
64602;BME280;68371;42.630;23.192;2024-03-22T09:13:00;92494.59;;;9.06;46.66
64602;BME280;68371;42.630;23.192;2024-03-22T09:15:29;92491.13;;;9.14;47.10
64602;BME280;68371;42.630;23.192;2024-03-22T09:17:54;92483.16;;;9.11;47.19
64602;BME280;68371;42.630;23.192;2024-03-22T09:20:21;92489.09;;;9.20;47.00
64602;BME280;68371;42.630;23.192;2024-03-22T09:22:47;92485.16;;;9.26;45.24
64602;BME280;68371;42.630;23.192;2024-03-22T09:25:14;92482.63;;;9.17;46.10
64602;BME280;68371;42.630;23.192;2024-03-22T09:27:40;92487.88;;;9.17;46.33
64602;BME280;68371;42.630;23.192;2024-03-22T09:30:08;92482.09;;;9.24;45.67
64602;BME280;68371;42.630;23.192;2024-03-22T09:32:36;92482.13;;;9.36;44.41
64602;BME280;68371;42.630;23.192;2024-03-22T09:35:04;92466.97;;;9.42;46.22
64602;BME280;68371;42.630;23.192;2024-03-22T09:37:30;92477.25;;;9.59;46.15
64602;BME280;68371;42.630;23.192;2024-03-22T09:39:56;92475.84;;;9.62;47.29
64602;BME280;68371;42.630;23.192;2024-03-22T09:42:23;92483.59;;;9.71;45.07
64602;BME280;68371;42.630;23.192;2024-03-22T09:44:50;92477.16;;;9.68;47.10
64602;BME280;68371;42.630;23.192;2024-03-22T09:47:17;92477.47;;;9.79;44.58
64602;BME280;68371;42.630;23.192;2024-03-22T09:49:47;92485.25;;;10.00;44.73
64602;BME280;68371;42.630;23.192;2024-03-22T09:52:15;92488.97;;;10.11;45.55
64602;BME280;68371;42.630;23.192;2024-03-22T09:54:44;92476.41;;;9.92;42.57
64602;BME280;68371;42.630;23.192;2024-03-22T09:57:14;92459.22;;;10.07;44.46
64602;BME280;68371;42.630;23.192;2024-03-22T09:59:42;92472.91;;;10.13;44.40
64602;BME280;68371;42.630;23.192;2024-03-22T10:02:11;92479.13;;;10.20;43.99
64602;BME280;68371;42.630;23.192;2024-03-22T10:04:38;92466.66;;;10.17;42.84
64602;BME280;68371;42.630;23.192;2024-03-22T10:07:05;92477.59;;;10.32;43.25
64602;BME280;68371;42.630;23.192;2024-03-22T10:09:33;92470.16;;;10.34;44.01
64602;BME280;68371;42.630;23.192;2024-03-22T10:11:59;92470.25;;;10.37;44.29
64602;BME280;68371;42.630;23.192;2024-03-22T10:14:26;92463.00;;;10.59;43.43
64602;BME280;68371;42.630;23.192;2024-03-22T10:16:52;92469.25;;;10.95;44.18
64602;BME280;68371;42.630;23.192;2024-03-22T10:19:19;92472.34;;;10.72;44.00
64602;BME280;68371;42.630;23.192;2024-03-22T10:21:46;92466.31;;;10.84;42.52
64602;BME280;68371;42.630;23.192;2024-03-22T10:24:16;92474.63;;;10.86;43.17
64602;BME280;68371;42.630;23.192;2024-03-22T10:26:41;92462.66;;;10.89;43.57
64602;BME280;68371;42.630;23.192;2024-03-22T10:29:08;92459.66;;;11.02;41.45
64602;BME280;68371;42.630;23.192;2024-03-22T10:31:35;92462.75;;;11.20;41.71
64602;BME280;68371;42.630;23.192;2024-03-22T10:34:02;92453.50;;;11.27;40.64
64602;BME280;68371;42.630;23.192;2024-03-22T10:36:30;92453.00;;;11.37;41.59
64602;BME280;68371;42.630;23.192;2024-03-22T10:38:58;92450.47;;;11.25;42.67
64602;BME280;68371;42.630;23.192;2024-03-22T10:41:27;92448.03;;;11.48;40.50
64602;BME280;68371;42.630;23.192;2024-03-22T10:43:54;92454.13;;;11.68;42.58
64602;BME280;68371;42.630;23.192;2024-03-22T10:46:20;92451.09;;;11.50;41.90
64602;BME280;68371;42.630;23.192;2024-03-22T10:48:47;92442.66;;;11.76;40.24
64602;BME280;68371;42.630;23.192;2024-03-22T10:51:15;92441.75;;;11.84;40.73
64602;BME280;68371;42.630;23.192;2024-03-22T10:53:43;92432.66;;;11.97;40.21
64602;BME280;68371;42.630;23.192;2024-03-22T10:56:10;92438.94;;;12.09;39.28
64602;BME280;68371;42.630;23.192;2024-03-22T10:58:40;92432.38;;;12.18;42.08
64602;BME280;68371;42.630;23.192;2024-03-22T11:01:21;92435.16;;;12.26;41.65
64602;BME280;68371;42.630;23.192;2024-03-22T11:03:49;92437.69;;;12.38;40.37
64602;BME280;68371;42.630;23.192;2024-03-22T11:06:19;92326.63;;;11.81;41.90
64602;BME280;68371;42.630;23.192;2024-03-22T11:08:50;92424.06;;;12.71;40.81
64602;BME280;68371;42.630;23.192;2024-03-22T11:11:18;92419.38;;;12.65;38.09
64602;BME280;68371;42.630;23.192;2024-03-22T11:13:48;92417.03;;;12.79;39.56
64602;BME280;68371;42.630;23.192;2024-03-22T11:16:14;92421.06;;;12.92;40.39
64602;BME280;68371;42.630;23.192;2024-03-22T11:18:42;92415.44;;;12.94;39.64
64602;BME280;68371;42.630;23.192;2024-03-22T11:21:07;92409.53;;;13.00;39.32
64602;BME280;68371;42.630;23.192;2024-03-22T11:23:35;92414.13;;;13.27;38.95
64602;BME280;68371;42.630;23.192;2024-03-22T11:26:01;92410.44;;;13.54;38.50
64602;BME280;68371;42.630;23.192;2024-03-22T11:28:28;92405.16;;;13.54;36.99
64602;BME280;68371;42.630;23.192;2024-03-22T11:30:55;92405.66;;;13.60;35.61
64602;BME280;68371;42.630;23.192;2024-03-22T11:33:22;92403.47;;;13.66;35.85
64602;BME280;68371;42.630;23.192;2024-03-22T11:35:48;92399.00;;;13.70;36.35
64602;BME280;68371;42.630;23.192;2024-03-22T11:38:16;92407.41;;;14.02;38.87
64602;BME280;68371;42.630;23.192;2024-03-22T11:40:42;92406.34;;;13.80;35.86
64602;BME280;68371;42.630;23.192;2024-03-22T11:43:09;92395.28;;;13.48;34.40
64602;BME280;68371;42.630;23.192;2024-03-22T11:45:35;92396.03;;;13.48;36.57
64602;BME280;68371;42.630;23.192;2024-03-22T11:48:06;92403.25;;;13.51;37.71
64602;BME280;68371;42.630;23.192;2024-03-22T11:50:31;92401.09;;;13.57;37.46
64602;BME280;68371;42.630;23.192;2024-03-22T11:52:58;92396.25;;;13.86;35.71
64602;BME280;68371;42.630;23.192;2024-03-22T11:55:27;92395.50;;;13.85;35.50
64602;BME280;68371;42.630;23.192;2024-03-22T11:57:53;92390.34;;;13.96;36.00
64602;BME280;68371;42.630;23.192;2024-03-22T12:00:20;92377.69;;;14.09;34.83
64602;BME280;68371;42.630;23.192;2024-03-22T12:02:48;92380.84;;;14.18;33.27
64602;BME280;68371;42.630;23.192;2024-03-22T12:05:17;92371.34;;;14.43;33.70
64602;BME280;68371;42.630;23.192;2024-03-22T12:07:44;92360.66;;;14.63;34.28
64602;BME280;68371;42.630;23.192;2024-03-22T12:10:11;92369.63;;;14.89;35.55
64602;BME280;68371;42.630;23.192;2024-03-22T12:12:37;92375.19;;;14.80;33.22
64602;BME280;68371;42.630;23.192;2024-03-22T12:15:04;92368.81;;;14.85;33.02
64602;BME280;68371;42.630;23.192;2024-03-22T12:17:30;92362.19;;;15.01;33.50
64602;BME280;68371;42.630;23.192;2024-03-22T12:19:56;92363.03;;;15.09;32.98
64602;BME280;68371;42.630;23.192;2024-03-22T12:22:24;92372.44;;;15.48;32.10
64602;BME280;68371;42.630;23.192;2024-03-22T12:24:51;92368.56;;;15.38;31.73
64602;BME280;68371;42.630;23.192;2024-03-22T12:27:16;92364.91;;;15.50;32.56
64602;BME280;68371;42.630;23.192;2024-03-22T12:29:43;92357.97;;;15.82;32.83
64602;BME280;68371;42.630;23.192;2024-03-22T12:32:09;92347.03;;;15.84;31.00
64602;BME280;68371;42.630;23.192;2024-03-22T12:34:36;92357.25;;;15.86;32.60
64602;BME280;68371;42.630;23.192;2024-03-22T12:37:02;92353.22;;;16.06;33.32
64602;BME280;68371;42.630;23.192;2024-03-22T12:39:30;92344.22;;;16.25;32.37
64602;BME280;68371;42.630;23.192;2024-03-22T12:41:57;92350.34;;;16.43;31.51
64602;BME280;68371;42.630;23.192;2024-03-22T12:44:24;92353.44;;;16.56;31.02
64602;BME280;68371;42.630;23.192;2024-03-22T12:46:50;92343.66;;;16.78;31.83
64602;BME280;68371;42.630;23.192;2024-03-22T12:49:17;92356.22;;;16.85;31.62
64602;BME280;68371;42.630;23.192;2024-03-22T12:51:43;92341.81;;;16.86;29.60
64602;BME280;68371;42.630;23.192;2024-03-22T12:54:10;92346.81;;;17.09;28.80